Historyczne dane pomiarowe

Dodano dane terminowe – wersja testowa.

Dane z okresu 1951-2019

Wersja bazy: 1.34 [2019-03-16, lista zmian], aktualizacja planowana na 2019-04-15

Dane meteo z obszaru Polski uzyskane na podstawie danych udostępnionych przez Instytut Meteorologii i Gospodarki Wodnej – Państwowy Instytut Badawczy.

 

Wybierz Datę:    

       

TemperaturaWilgotnośćWiatrCiśnienieOpadyŚniegCzas trwania zjawisk
 Stacja t tx tn tng RH VA  wxwx mslp ppp RRR   cm mm wxwxwxwxwxwxwx
1907-04-17 8.6 12.0 6.5--------- 2.1--x---------
1907-04-18 4.9 7.9 3.5--------- 0.1--x---------
1907-04-19 3.7 8.6 -0.4--------- 0.3--x---------
1907-04-20 4.6 9.6 -1.0--------- 0.8--x---------
1907-04-21 7.8 13.4 -0.5--------- 0.0--x---------
1907-04-22 9.9 16.5 3.0--------- 0.0--x---------
1907-04-23 8.0 11.9 3.5--------- 1.0--x---------
1907-04-24 10.6 13.4 5.6--------- 5.5--x---------
1907-04-25 7.6 11.9 5.0--------- 0.8--x---------
1907-04-26 5.1 10.1 1.2--------- 0.1--x---------
1907-04-27 3.8 7.9 0.5--------- 0.3--x---------
1907-04-28 6.9 11.5 -1.3--------- 0.2--x---------
1907-04-29 7.5 11.9 0.5--------- 0.0--x---------
1907-04-30 7.1 10.1 3.5--------- 0.0--x---------
1907-05-01 8.4 12.4 3.0--------- 0.1--x---------
1907-05-02 8.8 11.4 4.5--------- 1.1--x---------
1907-05-03 9.4 13.5 6.1--------- 2.1--x---------
1907-05-04 12.1 15.4 6.5--------- 5.0--x---------
1907-05-05 15.2 22.0 6.3--------- 0.5--x---------
1907-05-06 19.3 27.0 9.3--------- 0.0--x---------
1907-05-07 21.8 29.9 12.1--------- 0.0--x---------
1907-05-08 17.7 23.7 10.6--------- 0.0--x---------
1907-05-09 16.2 21.7 12.6--------- 0.0--x---------
1907-05-10 17.6 23.7 7.7--------- 0.0--x---------
1907-05-11 20.4 28.6 9.1--------- 0.0--x---------
1907-05-12 22.7 31.5 10.5--------- 0.0--x---------
1907-05-13 23.5 30.9 15.5--------- 0.0--x---------
1907-05-14 18.8 25.5 15.5--------- 0.0--x---------
1907-05-15 21.7 28.4 11.9--------- 0.3--x---------
1907-05-16 12.0 21.2 18.6--------- 6.6--x---------
3.2 ms

 

Źródłem pochodzenia danych jest Instytut Meteorologii i Gospodarki Wodnej – Państwowy Instytut Badawczy. Dane Instytutu Meteorologii i Gospodarki Wodnej – Państwowego Instytutu Badawczego zostały przetworzone.

Dane źródłowe można odnaleźć na stronie https://dane.imgw.pl